sensor_id;sensor_type;location;lat;lon;timestamp;temperature;humidity
17944;DHT22;9097;47.028;15.444;2023-02-28T00:01:14;3.10;99.90
17944;DHT22;9097;47.028;15.444;2023-02-28T00:04:18;3.20;99.90
17944;DHT22;9097;47.028;15.444;2023-02-28T00:07:20;3.20;99.90
17944;DHT22;9097;47.028;15.444;2023-02-28T00:10:25;3.30;99.90
17944;DHT22;9097;47.028;15.444;2023-02-28T00:13:27;3.10;99.90
17944;DHT22;9097;47.028;15.444;2023-02-28T00:16:30;3.00;99.90
17944;DHT22;9097;47.028;15.444;2023-02-28T00:19:33;3.00;99.90
17944;DHT22;9097;47.028;15.444;2023-02-28T00:22:36;2.80;99.90
17944;DHT22;9097;47.028;15.444;2023-02-28T00:25:39;2.50;99.90
17944;DHT22;9097;47.028;15.444;2023-02-28T00:28:41;2.60;99.90
17944;DHT22;9097;47.028;15.444;2023-02-28T00:31:43;2.70;99.90
17944;DHT22;9097;47.028;15.444;2023-02-28T00:34:47;2.50;99.90
17944;DHT22;9097;47.028;15.444;2023-02-28T00:37:49;2.50;99.90
17944;DHT22;9097;47.028;15.444;2023-02-28T00:40:52;2.60;99.90
17944;DHT22;9097;47.028;15.444;2023-02-28T00:43:54;2.70;99.90
17944;DHT22;9097;47.028;15.444;2023-02-28T00:46:56;2.60;99.90
17944;DHT22;9097;47.028;15.444;2023-02-28T00:50:00;2.60;99.90
17944;DHT22;9097;47.028;15.444;2023-02-28T00:53:03;2.60;99.90
17944;DHT22;9097;47.028;15.444;2023-02-28T00:56:06;2.70;99.90
17944;DHT22;9097;47.028;15.444;2023-02-28T00:59:08;2.60;99.90
17944;DHT22;9097;47.028;15.444;2023-02-28T01:02:11;2.70;99.90
17944;DHT22;9097;47.028;15.444;2023-02-28T01:05:15;2.70;99.90
17944;DHT22;9097;47.028;15.444;2023-02-28T01:08:18;2.90;99.90
17944;DHT22;9097;47.028;15.444;2023-02-28T01:11:20;3.00;99.90
17944;DHT22;9097;47.028;15.444;2023-02-28T01:14:23;3.00;99.90
17944;DHT22;9097;47.028;15.444;2023-02-28T01:17:25;2.90;99.90
17944;DHT22;9097;47.028;15.444;2023-02-28T01:20:29;2.90;99.90
17944;DHT22;9097;47.028;15.444;2023-02-28T01:23:31;2.90;99.90
17944;DHT22;9097;47.028;15.444;2023-02-28T01:26:34;3.00;99.90
17944;DHT22;9097;47.028;15.444;2023-02-28T01:29:36;3.00;99.90
17944;DHT22;9097;47.028;15.444;2023-02-28T01:32:38;3.00;99.90
17944;DHT22;9097;47.028;15.444;2023-02-28T01:35:42;3.10;99.90
17944;DHT22;9097;47.028;15.444;2023-02-28T01:38:45;2.90;99.90
17944;DHT22;9097;47.028;15.444;2023-02-28T01:41:48;3.20;99.90
17944;DHT22;9097;47.028;15.444;2023-02-28T01:45:18;3.10;99.90
17944;DHT22;9097;47.028;15.444;2023-02-28T01:48:24;3.00;99.90
17944;DHT22;9097;47.028;15.444;2023-02-28T01:51:36;3.10;99.90
17944;DHT22;9097;47.028;15.444;2023-02-28T01:54:39;3.10;99.90
17944;DHT22;9097;47.028;15.444;2023-02-28T01:57:45;3.00;99.90
17944;DHT22;9097;47.028;15.444;2023-02-28T02:00:48;2.80;99.90
17944;DHT22;9097;47.028;15.444;2023-02-28T02:03:53;2.90;99.90
17944;DHT22;9097;47.028;15.444;2023-02-28T02:06:58;2.90;99.90
17944;DHT22;9097;47.028;15.444;2023-02-28T02:10:03;2.90;99.90
17944;DHT22;9097;47.028;15.444;2023-02-28T02:13:19;2.90;99.90
17944;DHT22;9097;47.028;15.444;2023-02-28T02:16:34;2.80;99.90
17944;DHT22;9097;47.028;15.444;2023-02-28T02:20:16;2.90;99.90
17944;DHT22;9097;47.028;15.444;2023-02-28T02:23:40;2.90;99.90
17944;DHT22;9097;47.028;15.444;2023-02-28T02:27:09;2.70;99.90
17944;DHT22;9097;47.028;15.444;2023-02-28T02:30:40;2.80;99.90
17944;DHT22;9097;47.028;15.444;2023-02-28T02:34:09;2.80;99.90
17944;DHT22;9097;47.028;15.444;2023-02-28T02:37:33;2.90;99.90
17944;DHT22;9097;47.028;15.444;2023-02-28T02:40:44;2.80;99.90
17944;DHT22;9097;47.028;15.444;2023-02-28T02:43:52;2.90;99.90
17944;DHT22;9097;47.028;15.444;2023-02-28T02:46:59;2.80;99.90
17944;DHT22;9097;47.028;15.444;2023-02-28T02:50:08;2.80;99.90
17944;DHT22;9097;47.028;15.444;2023-02-28T02:53:15;2.80;99.90
17944;DHT22;9097;47.028;15.444;2023-02-28T02:56:21;2.60;99.90
17944;DHT22;9097;47.028;15.444;2023-02-28T02:59:25;2.60;99.90
17944;DHT22;9097;47.028;15.444;2023-02-28T03:02:30;2.60;99.90
17944;DHT22;9097;47.028;15.444;2023-02-28T03:05:42;2.70;99.90
17944;DHT22;9097;47.028;15.444;2023-02-28T03:08:46;2.60;99.90
17944;DHT22;9097;47.028;15.444;2023-02-28T03:11:51;2.50;99.90
17944;DHT22;9097;47.028;15.444;2023-02-28T03:15:07;2.60;99.90
17944;DHT22;9097;47.028;15.444;2023-02-28T03:18:14;2.50;99.90
17944;DHT22;9097;47.028;15.444;2023-02-28T03:21:25;2.40;99.90
17944;DHT22;9097;47.028;15.444;2023-02-28T03:24:33;2.60;99.90
17944;DHT22;9097;47.028;15.444;2023-02-28T03:27:40;2.60;99.90
17944;DHT22;9097;47.028;15.444;2023-02-28T03:30:48;2.80;99.90
17944;DHT22;9097;47.028;15.444;2023-02-28T03:33:59;2.80;99.90
17944;DHT22;9097;47.028;15.444;2023-02-28T03:37:09;2.80;99.90
17944;DHT22;9097;47.028;15.444;2023-02-28T03:40:15;3.00;99.90
17944;DHT22;9097;47.028;15.444;2023-02-28T03:43:23;2.70;99.90
17944;DHT22;9097;47.028;15.444;2023-02-28T03:46:32;2.60;99.90
17944;DHT22;9097;47.028;15.444;2023-02-28T03:49:37;2.60;99.90
17944;DHT22;9097;47.028;15.444;2023-02-28T04:05:03;2.50;99.90
17944;DHT22;9097;47.028;15.444;2023-02-28T04:08:08;2.50;99.90
17944;DHT22;9097;47.028;15.444;2023-02-28T04:11:21;2.60;99.90
17944;DHT22;9097;47.028;15.444;2023-02-28T04:14:24;2.60;99.90
17944;DHT22;9097;47.028;15.444;2023-02-28T05:06:22;2.80;99.90
17944;DHT22;9097;47.028;15.444;2023-02-28T05:09:27;3.10;99.90
17944;DHT22;9097;47.028;15.444;2023-02-28T05:12:30;3.10;99.90
17944;DHT22;9097;47.028;15.444;2023-02-28T05:15:32;3.00;99.90
17944;DHT22;9097;47.028;15.444;2023-02-28T05:18:34;3.00;99.90
17944;DHT22;9097;47.028;15.444;2023-02-28T05:21:38;3.00;99.90
17944;DHT22;9097;47.028;15.444;2023-02-28T05:24:43;3.10;99.90
17944;DHT22;9097;47.028;15.444;2023-02-28T05:27:45;3.00;99.90
17944;DHT22;9097;47.028;15.444;2023-02-28T05:30:48;3.00;99.90
17944;DHT22;9097;47.028;15.444;2023-02-28T05:33:50;2.90;99.90
17944;DHT22;9097;47.028;15.444;2023-02-28T05:36:53;3.00;99.90
17944;DHT22;9097;47.028;15.444;2023-02-28T05:39:57;3.00;99.90
17944;DHT22;9097;47.028;15.444;2023-02-28T05:42:59;3.00;99.90
17944;DHT22;9097;47.028;15.444;2023-02-28T05:46:03;2.90;99.90
17944;DHT22;9097;47.028;15.444;2023-02-28T05:49:06;3.10;99.90
17944;DHT22;9097;47.028;15.444;2023-02-28T05:52:08;3.00;99.90
17944;DHT22;9097;47.028;15.444;2023-02-28T05:55:13;3.10;99.90
17944;DHT22;9097;47.028;15.444;2023-02-28T05:58:15;2.80;99.90
17944;DHT22;9097;47.028;15.444;2023-02-28T06:01:23;2.90;99.90
17944;DHT22;9097;47.028;15.444;2023-02-28T06:04:26;3.00;99.90
17944;DHT22;9097;47.028;15.444;2023-02-28T06:07:28;2.90;99.90
17944;DHT22;9097;47.028;15.444;2023-02-28T06:10:32;3.00;99.90
17944;DHT22;9097;47.028;15.444;2023-02-28T06:13:34;2.80;99.90
17944;DHT22;9097;47.028;15.444;2023-02-28T06:16:37;2.80;99.90
17944;DHT22;9097;47.028;15.444;2023-02-28T06:19:39;3.00;99.90
17944;DHT22;9097;47.028;15.444;2023-02-28T06:22:42;3.00;99.90
17944;DHT22;9097;47.028;15.444;2023-02-28T06:25:47;3.10;99.90
17944;DHT22;9097;47.028;15.444;2023-02-28T06:28:50;3.20;99.90
17944;DHT22;9097;47.028;15.444;2023-02-28T06:31:52;3.30;99.90
17944;DHT22;9097;47.028;15.444;2023-02-28T06:34:55;3.20;99.90
17944;DHT22;9097;47.028;15.444;2023-02-28T06:38:01;3.30;99.90
17944;DHT22;9097;47.028;15.444;2023-02-28T06:41:06;3.30;99.90
17944;DHT22;9097;47.028;15.444;2023-02-28T06:44:12;3.40;99.90
17944;DHT22;9097;47.028;15.444;2023-02-28T06:47:15;3.30;99.90
17944;DHT22;9097;47.028;15.444;2023-02-28T06:50:17;3.40;99.90
17944;DHT22;9097;47.028;15.444;2023-02-28T06:53:21;3.30;99.90
17944;DHT22;9097;47.028;15.444;2023-02-28T06:56:25;3.40;99.90
17944;DHT22;9097;47.028;15.444;2023-02-28T06:59:27;3.30;99.90
17944;DHT22;9097;47.028;15.444;2023-02-28T07:02:29;3.30;99.90
17944;DHT22;9097;47.028;15.444;2023-02-28T07:05:34;3.30;99.90
17944;DHT22;9097;47.028;15.444;2023-02-28T07:08:37;3.20;99.90
17944;DHT22;9097;47.028;15.444;2023-02-28T07:11:42;3.30;99.90
17944;DHT22;9097;47.028;15.444;2023-02-28T07:14:44;3.40;99.90
17944;DHT22;9097;47.028;15.444;2023-02-28T07:17:47;3.40;99.90
17944;DHT22;9097;47.028;15.444;2023-02-28T07:20:49;3.40;99.90
17944;DHT22;9097;47.028;15.444;2023-02-28T07:23:51;3.50;99.90
17944;DHT22;9097;47.028;15.444;2023-02-28T07:26:55;3.50;99.90
17944;DHT22;9097;47.028;15.444;2023-02-28T07:29:57;3.60;99.90
17944;DHT22;9097;47.028;15.444;2023-02-28T07:33:02;3.40;99.90
17944;DHT22;9097;47.028;15.444;2023-02-28T07:36:07;3.40;99.90
17944;DHT22;9097;47.028;15.444;2023-02-28T07:39:10;3.30;99.90
17944;DHT22;9097;47.028;15.444;2023-02-28T07:42:14;3.40;99.90
17944;DHT22;9097;47.028;15.444;2023-02-28T07:45:17;3.30;99.90
17944;DHT22;9097;47.028;15.444;2023-02-28T07:48:20;3.50;99.90
17944;DHT22;9097;47.028;15.444;2023-02-28T07:51:22;3.60;99.90
17944;DHT22;9097;47.028;15.444;2023-02-28T07:54:24;3.60;99.90
17944;DHT22;9097;47.028;15.444;2023-02-28T07:57:28;3.60;99.90
17944;DHT22;9097;47.028;15.444;2023-02-28T08:00:30;3.70;99.90
17944;DHT22;9097;47.028;15.444;2023-02-28T08:03:33;3.70;99.90
17944;DHT22;9097;47.028;15.444;2023-02-28T08:06:36;3.60;99.90
17944;DHT22;9097;47.028;15.444;2023-02-28T08:09:40;3.60;99.90
17944;DHT22;9097;47.028;15.444;2023-02-28T08:12:44;3.50;99.90
17944;DHT22;9097;47.028;15.444;2023-02-28T08:15:46;3.50;99.90
17944;DHT22;9097;47.028;15.444;2023-02-28T08:18:49;3.50;99.90
17944;DHT22;9097;47.028;15.444;2023-02-28T08:21:52;3.60;99.90
17944;DHT22;9097;47.028;15.444;2023-02-28T08:24:55;3.60;99.90
17944;DHT22;9097;47.028;15.444;2023-02-28T08:27:58;3.60;99.90
17944;DHT22;9097;47.028;15.444;2023-02-28T08:31:01;3.60;99.90
17944;DHT22;9097;47.028;15.444;2023-02-28T08:34:11;3.60;99.90
17944;DHT22;9097;47.028;15.444;2023-02-28T08:37:13;3.60;99.90
17944;DHT22;9097;47.028;15.444;2023-02-28T08:40:16;3.60;99.90
17944;DHT22;9097;47.028;15.444;2023-02-28T08:43:21;3.70;99.90
17944;DHT22;9097;47.028;15.444;2023-02-28T08:46:24;3.70;99.90
17944;DHT22;9097;47.028;15.444;2023-02-28T08:49:26;3.80;99.90
17944;DHT22;9097;47.028;15.444;2023-02-28T08:52:29;3.90;99.90
17944;DHT22;9097;47.028;15.444;2023-02-28T08:55:32;3.80;99.90
17944;DHT22;9097;47.028;15.444;2023-02-28T08:58:36;3.80;99.90
17944;DHT22;9097;47.028;15.444;2023-02-28T09:01:39;3.80;99.90
17944;DHT22;9097;47.028;15.444;2023-02-28T09:04:42;3.80;99.90
17944;DHT22;9097;47.028;15.444;2023-02-28T09:07:46;3.70;99.90
17944;DHT22;9097;47.028;15.444;2023-02-28T09:10:48;3.70;99.90
17944;DHT22;9097;47.028;15.444;2023-02-28T09:13:52;3.80;99.90
17944;DHT22;9097;47.028;15.444;2023-02-28T09:16:56;3.80;99.90
17944;DHT22;9097;47.028;15.444;2023-02-28T09:19:58;3.90;99.90
17944;DHT22;9097;47.028;15.444;2023-02-28T09:23:00;3.80;99.90
17944;DHT22;9097;47.028;15.444;2023-02-28T09:26:03;3.90;99.90
17944;DHT22;9097;47.028;15.444;2023-02-28T09:29:07;3.90;99.90
17944;DHT22;9097;47.028;15.444;2023-02-28T09:32:09;3.80;99.90
17944;DHT22;9097;47.028;15.444;2023-02-28T09:35:11;3.90;99.90
17944;DHT22;9097;47.028;15.444;2023-02-28T09:38:17;4.00;99.90
17944;DHT22;9097;47.028;15.444;2023-02-28T09:41:23;4.10;99.90
17944;DHT22;9097;47.028;15.444;2023-02-28T09:44:31;4.00;99.90
17944;DHT22;9097;47.028;15.444;2023-02-28T09:47:38;4.30;99.90
17944;DHT22;9097;47.028;15.444;2023-02-28T09:50:45;4.00;99.90
17944;DHT22;9097;47.028;15.444;2023-02-28T09:53:48;3.80;99.90
17944;DHT22;9097;47.028;15.444;2023-02-28T09:56:53;3.90;99.90
17944;DHT22;9097;47.028;15.444;2023-02-28T10:00:10;4.00;99.90
17944;DHT22;9097;47.028;15.444;2023-02-28T10:03:29;4.10;99.90
17944;DHT22;9097;47.028;15.444;2023-02-28T10:06:38;4.20;99.90
17944;DHT22;9097;47.028;15.444;2023-02-28T10:09:41;4.10;99.90
17944;DHT22;9097;47.028;15.444;2023-02-28T10:12:45;4.10;99.90
17944;DHT22;9097;47.028;15.444;2023-02-28T10:15:53;4.10;99.90
17944;DHT22;9097;47.028;15.444;2023-02-28T10:19:02;4.20;99.90
17944;DHT22;9097;47.028;15.444;2023-02-28T10:22:11;4.20;99.90
17944;DHT22;9097;47.028;15.444;2023-02-28T10:25:19;4.40;99.90
17944;DHT22;9097;47.028;15.444;2023-02-28T10:28:25;4.40;99.90
17944;DHT22;9097;47.028;15.444;2023-02-28T10:55:58;4.80;99.90
17944;DHT22;9097;47.028;15.444;2023-02-28T10:59:28;4.80;99.90
17944;DHT22;9097;47.028;15.444;2023-02-28T11:02:35;4.70;99.90
17944;DHT22;9097;47.028;15.444;2023-02-28T11:05:38;4.90;99.90
17944;DHT22;9097;47.028;15.444;2023-02-28T11:08:51;5.00;99.90
17944;DHT22;9097;47.028;15.444;2023-02-28T11:11:54;4.80;99.90
17944;DHT22;9097;47.028;15.444;2023-02-28T11:14:59;4.80;99.90
17944;DHT22;9097;47.028;15.444;2023-02-28T11:21:24;5.40;99.90
17944;DHT22;9097;47.028;15.444;2023-02-28T12:05:43;6.20;99.90
17944;DHT22;9097;47.028;15.444;2023-02-28T12:08:59;6.10;99.90
17944;DHT22;9097;47.028;15.444;2023-02-28T12:12:11;6.00;99.90
17944;DHT22;9097;47.028;15.444;2023-02-28T12:15:46;5.80;99.90
17944;DHT22;9097;47.028;15.444;2023-02-28T12:19:06;5.80;99.90
17944;DHT22;9097;47.028;15.444;2023-02-28T12:22:27;6.20;99.90
17944;DHT22;9097;47.028;15.444;2023-02-28T12:25:55;5.90;99.90
17944;DHT22;9097;47.028;15.444;2023-02-28T12:29:04;6.10;99.90
17944;DHT22;9097;47.028;15.444;2023-02-28T12:32:14;6.00;99.90
17944;DHT22;9097;47.028;15.444;2023-02-28T12:35:21;6.00;99.90
17944;DHT22;9097;47.028;15.444;2023-02-28T12:38:29;6.10;99.90
17944;DHT22;9097;47.028;15.444;2023-02-28T12:41:39;6.10;99.90
17944;DHT22;9097;47.028;15.444;2023-02-28T13:19:11;6.70;99.90
17944;DHT22;9097;47.028;15.444;2023-02-28T13:22:19;6.40;99.90
17944;DHT22;9097;47.028;15.444;2023-02-28T13:25:51;6.40;99.90
17944;DHT22;9097;47.028;15.444;2023-02-28T13:29:27;6.40;99.90
17944;DHT22;9097;47.028;15.444;2023-02-28T13:32:42;6.50;99.90
17944;DHT22;9097;47.028;15.444;2023-02-28T13:35:44;6.20;99.90
17944;DHT22;9097;47.028;15.444;2023-02-28T13:38:48;6.10;99.90
17944;DHT22;9097;47.028;15.444;2023-02-28T13:41:53;6.10;99.90
17944;DHT22;9097;47.028;15.444;2023-02-28T13:45:24;6.00;99.90
17944;DHT22;9097;47.028;15.444;2023-02-28T13:48:29;6.10;99.90
17944;DHT22;9097;47.028;15.444;2023-02-28T13:51:39;5.80;99.90
17944;DHT22;9097;47.028;15.444;2023-02-28T13:54:54;5.90;99.90
17944;DHT22;9097;47.028;15.444;2023-02-28T13:58:10;5.90;99.90
17944;DHT22;9097;47.028;15.444;2023-02-28T14:01:43;5.90;99.90
17944;DHT22;9097;47.028;15.444;2023-02-28T14:05:13;5.80;99.90
17944;DHT22;9097;47.028;15.444;2023-02-28T14:08:19;5.70;99.90
17944;DHT22;9097;47.028;15.444;2023-02-28T14:11:32;5.80;99.90
17944;DHT22;9097;47.028;15.444;2023-02-28T14:14:55;5.90;99.90
17944;DHT22;9097;47.028;15.444;2023-02-28T14:18:00;6.10;99.90
17944;DHT22;9097;47.028;15.444;2023-02-28T14:21:21;6.10;99.90
17944;DHT22;9097;47.028;15.444;2023-02-28T14:24:48;6.30;99.90
17944;DHT22;9097;47.028;15.444;2023-02-28T14:28:04;6.20;99.90
17944;DHT22;9097;47.028;15.444;2023-02-28T14:31:13;6.20;99.90
17944;DHT22;9097;47.028;15.444;2023-02-28T14:34:39;6.20;99.90
17944;DHT22;9097;47.028;15.444;2023-02-28T14:37:44;6.30;99.90
17944;DHT22;9097;47.028;15.444;2023-02-28T14:40:48;6.10;99.90
17944;DHT22;9097;47.028;15.444;2023-02-28T14:43:57;6.10;99.90
17944;DHT22;9097;47.028;15.444;2023-02-28T14:47:03;6.00;99.90
17944;DHT22;9097;47.028;15.444;2023-02-28T14:50:18;6.10;99.90
17944;DHT22;9097;47.028;15.444;2023-02-28T14:53:23;6.20;99.90
17944;DHT22;9097;47.028;15.444;2023-02-28T14:56:30;6.10;99.90
17944;DHT22;9097;47.028;15.444;2023-02-28T14:59:36;6.10;99.90
17944;DHT22;9097;47.028;15.444;2023-02-28T15:02:41;6.10;99.90
17944;DHT22;9097;47.028;15.444;2023-02-28T15:05:51;6.20;99.90
17944;DHT22;9097;47.028;15.444;2023-02-28T15:09:08;6.00;99.90
17944;DHT22;9097;47.028;15.444;2023-02-28T15:12:14;6.20;99.90
17944;DHT22;9097;47.028;15.444;2023-02-28T15:15:17;6.20;99.90
17944;DHT22;9097;47.028;15.444;2023-02-28T15:18:29;5.90;99.90
17944;DHT22;9097;47.028;15.444;2023-02-28T15:21:34;6.20;99.90
17944;DHT22;9097;47.028;15.444;2023-02-28T15:24:40;6.00;99.90
17944;DHT22;9097;47.028;15.444;2023-02-28T15:27:46;6.00;99.90
17944;DHT22;9097;47.028;15.444;2023-02-28T15:30:53;5.80;99.90
17944;DHT22;9097;47.028;15.444;2023-02-28T15:34:02;5.80;99.90
17944;DHT22;9097;47.028;15.444;2023-02-28T15:40:28;5.80;99.90
17944;DHT22;9097;47.028;15.444;2023-02-28T15:43:32;5.70;99.90
17944;DHT22;9097;47.028;15.444;2023-02-28T15:46:35;5.80;99.90
17944;DHT22;9097;47.028;15.444;2023-02-28T15:49:46;5.70;99.90
17944;DHT22;9097;47.028;15.444;2023-02-28T15:52:49;5.70;99.90
17944;DHT22;9097;47.028;15.444;2023-02-28T15:55:58;5.70;99.90
17944;DHT22;9097;47.028;15.444;2023-02-28T15:59:02;5.60;99.90
17944;DHT22;9097;47.028;15.444;2023-02-28T16:02:16;5.70;99.90
17944;DHT22;9097;47.028;15.444;2023-02-28T16:05:27;5.70;99.90
17944;DHT22;9097;47.028;15.444;2023-02-28T16:08:32;5.40;99.90
17944;DHT22;9097;47.028;15.444;2023-02-28T16:11:37;5.50;99.90
17944;DHT22;9097;47.028;15.444;2023-02-28T16:14:41;5.50;99.90
17944;DHT22;9097;47.028;15.444;2023-02-28T16:17:46;5.50;99.90
17944;DHT22;9097;47.028;15.444;2023-02-28T16:20:49;5.40;99.90
17944;DHT22;9097;47.028;15.444;2023-02-28T16:23:52;5.40;99.90
17944;DHT22;9097;47.028;15.444;2023-02-28T16:26:56;5.20;99.90
17944;DHT22;9097;47.028;15.444;2023-02-28T16:29:58;5.20;99.90
17944;DHT22;9097;47.028;15.444;2023-02-28T16:33:02;5.30;99.90
17944;DHT22;9097;47.028;15.444;2023-02-28T16:36:13;5.20;99.90
17944;DHT22;9097;47.028;15.444;2023-02-28T16:42:23;5.10;99.90
17944;DHT22;9097;47.028;15.444;2023-02-28T16:45:29;5.10;99.90
17944;DHT22;9097;47.028;15.444;2023-02-28T16:48:32;4.80;99.90
17944;DHT22;9097;47.028;15.444;2023-02-28T16:51:35;5.10;99.90
17944;DHT22;9097;47.028;15.444;2023-02-28T16:54:38;5.00;99.90
17944;DHT22;9097;47.028;15.444;2023-02-28T16:57:43;4.80;99.90
17944;DHT22;9097;47.028;15.444;2023-02-28T17:00:47;5.10;99.90
17944;DHT22;9097;47.028;15.444;2023-02-28T17:03:49;5.10;99.90
17944;DHT22;9097;47.028;15.444;2023-02-28T17:06:53;5.00;99.90
17944;DHT22;9097;47.028;15.444;2023-02-28T17:10:01;4.90;99.90
17944;DHT22;9097;47.028;15.444;2023-02-28T17:13:09;5.10;99.90
17944;DHT22;9097;47.028;15.444;2023-02-28T17:16:23;4.90;99.90
17944;DHT22;9097;47.028;15.444;2023-02-28T17:19:40;5.00;99.90
17944;DHT22;9097;47.028;15.444;2023-02-28T17:22:46;5.10;99.90
17944;DHT22;9097;47.028;15.444;2023-02-28T17:25:50;5.00;99.90
17944;DHT22;9097;47.028;15.444;2023-02-28T17:28:57;4.80;99.90
17944;DHT22;9097;47.028;15.444;2023-02-28T17:32:00;5.00;99.90
17944;DHT22;9097;47.028;15.444;2023-02-28T17:35:10;4.90;99.90
17944;DHT22;9097;47.028;15.444;2023-02-28T17:38:19;4.90;99.90
17944;DHT22;9097;47.028;15.444;2023-02-28T17:41:23;5.00;99.90
17944;DHT22;9097;47.028;15.444;2023-02-28T17:44:27;4.90;99.90
17944;DHT22;9097;47.028;15.444;2023-02-28T17:47:29;5.10;99.90
17944;DHT22;9097;47.028;15.444;2023-02-28T17:50:31;4.90;99.90
17944;DHT22;9097;47.028;15.444;2023-02-28T17:53:35;4.90;99.90
17944;DHT22;9097;47.028;15.444;2023-02-28T17:56:38;4.80;99.90
17944;DHT22;9097;47.028;15.444;2023-02-28T17:59:40;4.90;99.90
17944;DHT22;9097;47.028;15.444;2023-02-28T18:02:43;4.70;99.90
17944;DHT22;9097;47.028;15.444;2023-02-28T18:05:45;4.80;99.90
17944;DHT22;9097;47.028;15.444;2023-02-28T18:08:49;5.00;99.90
17944;DHT22;9097;47.028;15.444;2023-02-28T18:11:55;5.00;99.90
17944;DHT22;9097;47.028;15.444;2023-02-28T18:14:58;5.00;99.90
17944;DHT22;9097;47.028;15.444;2023-02-28T18:18:01;5.00;99.90
17944;DHT22;9097;47.028;15.444;2023-02-28T18:21:07;4.90;99.90
17944;DHT22;9097;47.028;15.444;2023-02-28T18:24:13;4.70;99.90
17944;DHT22;9097;47.028;15.444;2023-02-28T18:27:19;4.90;99.90
17944;DHT22;9097;47.028;15.444;2023-02-28T18:30:25;4.80;99.90
17944;DHT22;9097;47.028;15.444;2023-02-28T18:33:30;4.80;99.90
17944;DHT22;9097;47.028;15.444;2023-02-28T18:36:33;5.00;99.90
17944;DHT22;9097;47.028;15.444;2023-02-28T18:39:36;4.80;99.90
17944;DHT22;9097;47.028;15.444;2023-02-28T18:42:38;4.90;99.90
17944;DHT22;9097;47.028;15.444;2023-02-28T18:45:41;4.60;99.90
17944;DHT22;9097;47.028;15.444;2023-02-28T18:48:44;4.30;99.90
17944;DHT22;9097;47.028;15.444;2023-02-28T18:51:47;4.70;99.90
17944;DHT22;9097;47.028;15.444;2023-02-28T18:54:50;4.70;99.90
17944;DHT22;9097;47.028;15.444;2023-02-28T18:57:53;4.70;99.90
17944;DHT22;9097;47.028;15.444;2023-02-28T19:00:55;4.80;99.90
17944;DHT22;9097;47.028;15.444;2023-02-28T19:03:58;4.80;99.90
17944;DHT22;9097;47.028;15.444;2023-02-28T19:07:01;4.70;99.90
17944;DHT22;9097;47.028;15.444;2023-02-28T19:10:06;4.60;99.90
17944;DHT22;9097;47.028;15.444;2023-02-28T19:13:08;4.80;99.90
17944;DHT22;9097;47.028;15.444;2023-02-28T19:16:12;4.90;99.90
17944;DHT22;9097;47.028;15.444;2023-02-28T19:19:18;4.80;99.90
17944;DHT22;9097;47.028;15.444;2023-02-28T19:22:21;4.80;99.90
17944;DHT22;9097;47.028;15.444;2023-02-28T19:25:27;4.80;99.90
17944;DHT22;9097;47.028;15.444;2023-02-28T19:28:31;4.80;99.90
17944;DHT22;9097;47.028;15.444;2023-02-28T19:31:34;4.90;99.90
17944;DHT22;9097;47.028;15.444;2023-02-28T19:34:38;4.80;99.90
17944;DHT22;9097;47.028;15.444;2023-02-28T19:37:40;4.80;99.90
17944;DHT22;9097;47.028;15.444;2023-02-28T19:40:44;4.60;99.90
17944;DHT22;9097;47.028;15.444;2023-02-28T19:43:47;4.60;99.90
17944;DHT22;9097;47.028;15.444;2023-02-28T19:46:50;4.60;99.90
17944;DHT22;9097;47.028;15.444;2023-02-28T19:49:54;4.60;99.90
17944;DHT22;9097;47.028;15.444;2023-02-28T19:53:00;4.60;99.90
17944;DHT22;9097;47.028;15.444;2023-02-28T19:56:07;4.70;99.90
17944;DHT22;9097;47.028;15.444;2023-02-28T19:59:12;4.90;99.90
17944;DHT22;9097;47.028;15.444;2023-02-28T20:02:16;4.80;99.90
17944;DHT22;9097;47.028;15.444;2023-02-28T20:05:21;4.80;99.90
17944;DHT22;9097;47.028;15.444;2023-02-28T20:08:24;4.70;99.90
17944;DHT22;9097;47.028;15.444;2023-02-28T20:11:29;4.80;99.90
17944;DHT22;9097;47.028;15.444;2023-02-28T20:14:36;4.50;99.90
17944;DHT22;9097;47.028;15.444;2023-02-28T20:17:39;4.50;99.90
17944;DHT22;9097;47.028;15.444;2023-02-28T20:20:42;4.70;99.90
17944;DHT22;9097;47.028;15.444;2023-02-28T20:23:46;4.70;99.90
17944;DHT22;9097;47.028;15.444;2023-02-28T20:26:50;4.60;99.90
17944;DHT22;9097;47.028;15.444;2023-02-28T20:29:52;4.50;99.90
17944;DHT22;9097;47.028;15.444;2023-02-28T20:32:55;4.70;99.90
17944;DHT22;9097;47.028;15.444;2023-02-28T20:35:58;4.70;99.90
17944;DHT22;9097;47.028;15.444;2023-02-28T20:39:02;4.80;99.90
17944;DHT22;9097;47.028;15.444;2023-02-28T20:42:06;4.80;99.90
17944;DHT22;9097;47.028;15.444;2023-02-28T20:45:10;4.90;99.90
17944;DHT22;9097;47.028;15.444;2023-02-28T20:48:15;4.80;99.90
17944;DHT22;9097;47.028;15.444;2023-02-28T20:51:23;4.90;99.90
17944;DHT22;9097;47.028;15.444;2023-02-28T20:54:26;4.90;99.90
17944;DHT22;9097;47.028;15.444;2023-02-28T20:57:32;5.10;99.90
17944;DHT22;9097;47.028;15.444;2023-02-28T21:00:38;4.80;99.90
17944;DHT22;9097;47.028;15.444;2023-02-28T21:03:40;4.70;99.90
17944;DHT22;9097;47.028;15.444;2023-02-28T21:06:42;5.00;99.90
17944;DHT22;9097;47.028;15.444;2023-02-28T21:09:47;4.70;99.90
17944;DHT22;9097;47.028;15.444;2023-02-28T21:12:50;4.80;99.90
17944;DHT22;9097;47.028;15.444;2023-02-28T21:16:02;4.70;99.90
17944;DHT22;9097;47.028;15.444;2023-02-28T21:19:04;4.70;99.90
17944;DHT22;9097;47.028;15.444;2023-02-28T21:22:06;4.60;99.90
17944;DHT22;9097;47.028;15.444;2023-02-28T21:25:09;4.70;99.90
17944;DHT22;9097;47.028;15.444;2023-02-28T21:28:12;4.50;99.90
17944;DHT22;9097;47.028;15.444;2023-02-28T21:31:18;4.80;99.90
17944;DHT22;9097;47.028;15.444;2023-02-28T21:34:24;4.70;99.90
17944;DHT22;9097;47.028;15.444;2023-02-28T21:37:28;4.80;99.90
17944;DHT22;9097;47.028;15.444;2023-02-28T21:40:32;4.60;99.90
17944;DHT22;9097;47.028;15.444;2023-02-28T21:43:36;4.70;99.90
17944;DHT22;9097;47.028;15.444;2023-02-28T21:46:38;4.90;99.90
17944;DHT22;9097;47.028;15.444;2023-02-28T21:49:41;4.70;99.90
17944;DHT22;9097;47.028;15.444;2023-02-28T21:52:43;4.80;99.90
17944;DHT22;9097;47.028;15.444;2023-02-28T21:55:46;4.60;99.90
17944;DHT22;9097;47.028;15.444;2023-02-28T21:58:50;4.70;99.90
17944;DHT22;9097;47.028;15.444;2023-02-28T22:01:59;4.70;99.90
17944;DHT22;9097;47.028;15.444;2023-02-28T22:05:02;4.60;99.90
17944;DHT22;9097;47.028;15.444;2023-02-28T22:08:04;4.70;99.90
17944;DHT22;9097;47.028;15.444;2023-02-28T22:11:07;4.80;99.90
17944;DHT22;9097;47.028;15.444;2023-02-28T22:14:11;4.80;99.90
17944;DHT22;9097;47.028;15.444;2023-02-28T22:17:13;4.60;99.90
17944;DHT22;9097;47.028;15.444;2023-02-28T22:20:17;4.70;99.90
17944;DHT22;9097;47.028;15.444;2023-02-28T22:23:20;4.60;99.90
17944;DHT22;9097;47.028;15.444;2023-02-28T22:26:22;4.50;99.90
17944;DHT22;9097;47.028;15.444;2023-02-28T22:29:26;4.70;99.90
17944;DHT22;9097;47.028;15.444;2023-02-28T22:32:28;4.40;99.90
17944;DHT22;9097;47.028;15.444;2023-02-28T22:35:30;4.40;99.90
17944;DHT22;9097;47.028;15.444;2023-02-28T22:38:34;4.40;99.90
17944;DHT22;9097;47.028;15.444;2023-02-28T22:41:36;4.30;99.90
17944;DHT22;9097;47.028;15.444;2023-02-28T22:44:40;4.40;99.90